« Back
NWS Peachtree City, Ga » Text Product » AHN Terminal Aerodrome Forecast


Printer-friendly Version
Current Version              Previous Versions:   1  2  3  4  5  6  7  8  9  

Terminal Aerodrome Forecast

404
FTUS42 KFFC 012200 AAA
TAFAHN
TAF AMD
KAHN 012200Z 0122/0218 08007KT P6SM BKN025
     FM020700 07003KT 6SM BR BKN012
     FM020900 07003KT 4SM BR OVC006
     FM021400 07004KT P6SM VCSH BKN015=

USA.gov is the U.S. government's official web portal to all federal, state and local government web resources and services.